sensor_id;sensor_type;location;lat;lon;timestamp;temperature;humidity
18101;DHT22;9177;49.156;8.142;2022-11-20T00:01:33;19.90;96.40
18101;DHT22;9177;49.156;8.142;2022-11-20T00:04:00;19.90;96.40
18101;DHT22;9177;49.156;8.142;2022-11-20T00:06:28;19.90;96.40
18101;DHT22;9177;49.156;8.142;2022-11-20T00:08:56;19.90;96.40
18101;DHT22;9177;49.156;8.142;2022-11-20T00:11:26;19.90;96.40
18101;DHT22;9177;49.156;8.142;2022-11-20T00:13:55;19.90;96.40
18101;DHT22;9177;49.156;8.142;2022-11-20T00:16:24;19.90;96.40
18101;DHT22;9177;49.156;8.142;2022-11-20T00:18:54;19.90;96.40
18101;DHT22;9177;49.156;8.142;2022-11-20T00:21:22;19.90;96.30
18101;DHT22;9177;49.156;8.142;2022-11-20T00:23:52;19.90;96.30
18101;DHT22;9177;49.156;8.142;2022-11-20T00:26:21;19.90;96.30
18101;DHT22;9177;49.156;8.142;2022-11-20T00:28:52;19.90;96.30
18101;DHT22;9177;49.156;8.142;2022-11-20T00:31:20;19.80;96.30
18101;DHT22;9177;49.156;8.142;2022-11-20T00:33:47;19.90;96.30
18101;DHT22;9177;49.156;8.142;2022-11-20T00:36:15;19.80;96.30
18101;DHT22;9177;49.156;8.142;2022-11-20T00:38:44;19.90;96.30
18101;DHT22;9177;49.156;8.142;2022-11-20T00:41:12;19.90;96.30
18101;DHT22;9177;49.156;8.142;2022-11-20T00:43:39;19.90;96.20
18101;DHT22;9177;49.156;8.142;2022-11-20T00:46:10;19.90;96.20
18101;DHT22;9177;49.156;8.142;2022-11-20T00:48:37;19.90;96.10
18101;DHT22;9177;49.156;8.142;2022-11-20T00:51:03;20.00;96.10
18101;DHT22;9177;49.156;8.142;2022-11-20T00:53:31;20.00;96.10
18101;DHT22;9177;49.156;8.142;2022-11-20T00:55:59;20.00;96.00
18101;DHT22;9177;49.156;8.142;2022-11-20T00:58:32;20.00;96.00
18101;DHT22;9177;49.156;8.142;2022-11-20T01:01:00;20.00;96.00
18101;DHT22;9177;49.156;8.142;2022-11-20T01:03:30;20.00;95.90
18101;DHT22;9177;49.156;8.142;2022-11-20T01:06:00;20.10;95.90
18101;DHT22;9177;49.156;8.142;2022-11-20T01:08:29;20.10;95.90
18101;DHT22;9177;49.156;8.142;2022-11-20T01:10:59;20.10;95.90
18101;DHT22;9177;49.156;8.142;2022-11-20T01:13:26;20.10;95.90
18101;DHT22;9177;49.156;8.142;2022-11-20T01:16:06;20.10;95.90
18101;DHT22;9177;49.156;8.142;2022-11-20T01:18:35;20.10;95.90
18101;DHT22;9177;49.156;8.142;2022-11-20T01:21:03;20.10;95.80
18101;DHT22;9177;49.156;8.142;2022-11-20T01:23:32;20.10;95.80
18101;DHT22;9177;49.156;8.142;2022-11-20T01:26:01;20.10;95.80
18101;DHT22;9177;49.156;8.142;2022-11-20T01:28:29;20.10;96.20
18101;DHT22;9177;49.156;8.142;2022-11-20T01:30:56;20.10;95.80
18101;DHT22;9177;49.156;8.142;2022-11-20T01:33:22;20.10;95.80
18101;DHT22;9177;49.156;8.142;2022-11-20T01:35:51;20.10;95.80
18101;DHT22;9177;49.156;8.142;2022-11-20T01:38:18;20.10;95.80
18101;DHT22;9177;49.156;8.142;2022-11-20T01:40:46;20.10;95.80
18101;DHT22;9177;49.156;8.142;2022-11-20T01:43:20;20.10;95.80
18101;DHT22;9177;49.156;8.142;2022-11-20T01:46:06;20.10;95.80
18101;DHT22;9177;49.156;8.142;2022-11-20T01:48:36;20.10;95.80
18101;DHT22;9177;49.156;8.142;2022-11-20T01:51:07;20.10;95.80
18101;DHT22;9177;49.156;8.142;2022-11-20T01:53:37;20.10;95.80
18101;DHT22;9177;49.156;8.142;2022-11-20T01:56:08;20.00;95.80
18101;DHT22;9177;49.156;8.142;2022-11-20T01:58:39;20.10;95.80
18101;DHT22;9177;49.156;8.142;2022-11-20T02:01:07;20.00;95.80
18101;DHT22;9177;49.156;8.142;2022-11-20T02:03:34;20.00;95.80
18101;DHT22;9177;49.156;8.142;2022-11-20T02:06:07;20.10;95.80
18101;DHT22;9177;49.156;8.142;2022-11-20T02:08:37;20.00;95.80
18101;DHT22;9177;49.156;8.142;2022-11-20T02:11:05;20.00;95.80
18101;DHT22;9177;49.156;8.142;2022-11-20T02:13:32;20.00;95.80
18101;DHT22;9177;49.156;8.142;2022-11-20T02:16:22;20.00;95.80
18101;DHT22;9177;49.156;8.142;2022-11-20T02:18:50;20.00;95.80
18101;DHT22;9177;49.156;8.142;2022-11-20T02:21:24;20.00;95.80
18101;DHT22;9177;49.156;8.142;2022-11-20T02:24:06;20.00;95.80
18101;DHT22;9177;49.156;8.142;2022-11-20T02:26:39;20.00;95.80
18101;DHT22;9177;49.156;8.142;2022-11-20T02:29:07;20.10;95.80
18101;DHT22;9177;49.156;8.142;2022-11-20T02:31:37;20.00;95.80
18101;DHT22;9177;49.156;8.142;2022-11-20T02:34:05;20.00;95.80
18101;DHT22;9177;49.156;8.142;2022-11-20T02:36:33;20.00;95.80
18101;DHT22;9177;49.156;8.142;2022-11-20T02:39:06;20.00;95.80
18101;DHT22;9177;49.156;8.142;2022-11-20T02:41:35;20.00;95.80
18101;DHT22;9177;49.156;8.142;2022-11-20T02:44:02;20.00;95.80
18101;DHT22;9177;49.156;8.142;2022-11-20T02:46:29;20.00;95.80
18101;DHT22;9177;49.156;8.142;2022-11-20T02:48:56;20.00;95.80
18101;DHT22;9177;49.156;8.142;2022-11-20T02:51:23;20.00;95.80
18101;DHT22;9177;49.156;8.142;2022-11-20T02:53:50;20.00;95.80
18101;DHT22;9177;49.156;8.142;2022-11-20T02:56:19;20.00;95.80
18101;DHT22;9177;49.156;8.142;2022-11-20T02:58:46;20.00;95.80
18101;DHT22;9177;49.156;8.142;2022-11-20T03:01:13;20.00;95.80
18101;DHT22;9177;49.156;8.142;2022-11-20T03:03:40;20.00;95.80
18101;DHT22;9177;49.156;8.142;2022-11-20T03:06:07;20.00;95.80
18101;DHT22;9177;49.156;8.142;2022-11-20T03:08:34;20.00;96.20
18101;DHT22;9177;49.156;8.142;2022-11-20T03:11:05;20.00;95.80
18101;DHT22;9177;49.156;8.142;2022-11-20T03:13:34;20.00;95.80
18101;DHT22;9177;49.156;8.142;2022-11-20T03:16:06;20.00;96.20
18101;DHT22;9177;49.156;8.142;2022-11-20T03:18:33;20.00;95.80
18101;DHT22;9177;49.156;8.142;2022-11-20T03:21:00;20.00;95.80
18101;DHT22;9177;49.156;8.142;2022-11-20T03:23:29;20.00;95.80
18101;DHT22;9177;49.156;8.142;2022-11-20T03:26:07;20.00;95.80
18101;DHT22;9177;49.156;8.142;2022-11-20T03:28:36;20.00;95.80
18101;DHT22;9177;49.156;8.142;2022-11-20T03:31:06;20.00;95.80
18101;DHT22;9177;49.156;8.142;2022-11-20T03:33:33;20.00;95.80
18101;DHT22;9177;49.156;8.142;2022-11-20T03:36:01;20.00;95.80
18101;DHT22;9177;49.156;8.142;2022-11-20T03:38:29;20.00;95.80
18101;DHT22;9177;49.156;8.142;2022-11-20T03:40:59;20.00;95.80
18101;DHT22;9177;49.156;8.142;2022-11-20T03:43:26;20.00;95.80
18101;DHT22;9177;49.156;8.142;2022-11-20T03:45:54;20.00;95.80
18101;DHT22;9177;49.156;8.142;2022-11-20T03:48:21;20.00;95.80
18101;DHT22;9177;49.156;8.142;2022-11-20T03:50:48;20.00;95.80
18101;DHT22;9177;49.156;8.142;2022-11-20T03:53:15;20.00;95.80
18101;DHT22;9177;49.156;8.142;2022-11-20T03:55:42;20.00;95.80
18101;DHT22;9177;49.156;8.142;2022-11-20T03:58:09;20.00;95.80
18101;DHT22;9177;49.156;8.142;2022-11-20T04:00:36;20.00;95.80
18101;DHT22;9177;49.156;8.142;2022-11-20T04:03:05;20.00;95.80
18101;DHT22;9177;49.156;8.142;2022-11-20T04:05:33;20.00;95.80
18101;DHT22;9177;49.156;8.142;2022-11-20T04:08:00;20.00;96.20
18101;DHT22;9177;49.156;8.142;2022-11-20T04:10:27;20.00;95.80
18101;DHT22;9177;49.156;8.142;2022-11-20T04:12:53;20.00;95.80
18101;DHT22;9177;49.156;8.142;2022-11-20T04:15:20;20.00;95.80
18101;DHT22;9177;49.156;8.142;2022-11-20T04:17:47;20.00;95.80
18101;DHT22;9177;49.156;8.142;2022-11-20T04:20:15;20.10;96.20
18101;DHT22;9177;49.156;8.142;2022-11-20T04:22:42;20.10;95.90
18101;DHT22;9177;49.156;8.142;2022-11-20T04:25:09;20.10;95.80
18101;DHT22;9177;49.156;8.142;2022-11-20T04:27:36;20.10;95.90
18101;DHT22;9177;49.156;8.142;2022-11-20T04:30:03;20.00;95.80
18101;DHT22;9177;49.156;8.142;2022-11-20T04:32:30;20.00;95.90
18101;DHT22;9177;49.156;8.142;2022-11-20T04:34:57;20.10;95.90
18101;DHT22;9177;49.156;8.142;2022-11-20T04:37:25;20.10;95.90
18101;DHT22;9177;49.156;8.142;2022-11-20T04:39:53;20.00;95.90
18101;DHT22;9177;49.156;8.142;2022-11-20T04:42:20;20.00;95.90
18101;DHT22;9177;49.156;8.142;2022-11-20T04:44:56;20.10;95.90
18101;DHT22;9177;49.156;8.142;2022-11-20T04:47:29;20.10;95.90
18101;DHT22;9177;49.156;8.142;2022-11-20T04:50:00;20.10;95.90
18101;DHT22;9177;49.156;8.142;2022-11-20T04:52:28;20.10;95.90
18101;DHT22;9177;49.156;8.142;2022-11-20T04:54:55;20.10;95.90
18101;DHT22;9177;49.156;8.142;2022-11-20T04:57:22;20.10;95.90
18101;DHT22;9177;49.156;8.142;2022-11-20T04:59:48;20.10;95.90
18101;DHT22;9177;49.156;8.142;2022-11-20T05:02:15;20.10;95.90
18101;DHT22;9177;49.156;8.142;2022-11-20T05:04:42;20.10;96.00
18101;DHT22;9177;49.156;8.142;2022-11-20T05:07:09;20.10;96.00
18101;DHT22;9177;49.156;8.142;2022-11-20T05:09:37;20.10;96.00
18101;DHT22;9177;49.156;8.142;2022-11-20T05:12:06;20.10;96.00
18101;DHT22;9177;49.156;8.142;2022-11-20T05:14:38;20.10;96.00
18101;DHT22;9177;49.156;8.142;2022-11-20T05:17:05;20.10;96.00
18101;DHT22;9177;49.156;8.142;2022-11-20T05:19:31;20.10;95.90
18101;DHT22;9177;49.156;8.142;2022-11-20T05:21:58;20.10;95.90
18101;DHT22;9177;49.156;8.142;2022-11-20T05:24:25;20.10;95.90
18101;DHT22;9177;49.156;8.142;2022-11-20T05:26:53;20.10;96.00
18101;DHT22;9177;49.156;8.142;2022-11-20T05:29:20;20.10;96.00
18101;DHT22;9177;49.156;8.142;2022-11-20T05:31:47;20.10;96.00
18101;DHT22;9177;49.156;8.142;2022-11-20T05:34:14;20.10;96.00
18101;DHT22;9177;49.156;8.142;2022-11-20T05:36:41;20.10;96.00
18101;DHT22;9177;49.156;8.142;2022-11-20T05:39:07;20.10;96.00
18101;DHT22;9177;49.156;8.142;2022-11-20T05:41:35;20.10;96.00
18101;DHT22;9177;49.156;8.142;2022-11-20T05:44:03;20.10;96.00
18101;DHT22;9177;49.156;8.142;2022-11-20T05:46:31;20.10;96.00
18101;DHT22;9177;49.156;8.142;2022-11-20T05:48:58;20.10;96.00
18101;DHT22;9177;49.156;8.142;2022-11-20T05:51:25;20.10;96.00
18101;DHT22;9177;49.156;8.142;2022-11-20T05:53:52;20.10;96.00
18101;DHT22;9177;49.156;8.142;2022-11-20T05:56:21;20.10;96.00
18101;DHT22;9177;49.156;8.142;2022-11-20T05:58:48;20.10;96.10
18101;DHT22;9177;49.156;8.142;2022-11-20T06:01:18;20.10;96.10
18101;DHT22;9177;49.156;8.142;2022-11-20T06:03:46;20.10;96.10
18101;DHT22;9177;49.156;8.142;2022-11-20T06:06:13;20.10;96.10
18101;DHT22;9177;49.156;8.142;2022-11-20T06:08:40;20.10;96.10
18101;DHT22;9177;49.156;8.142;2022-11-20T06:11:09;20.10;96.10
18101;DHT22;9177;49.156;8.142;2022-11-20T06:13:37;20.10;96.10
18101;DHT22;9177;49.156;8.142;2022-11-20T06:16:04;20.10;96.10
18101;DHT22;9177;49.156;8.142;2022-11-20T06:18:32;20.10;96.10
18101;DHT22;9177;49.156;8.142;2022-11-20T06:21:01;20.10;96.10
18101;DHT22;9177;49.156;8.142;2022-11-20T06:23:29;20.10;96.10
18101;DHT22;9177;49.156;8.142;2022-11-20T06:25:56;20.10;96.10
18101;DHT22;9177;49.156;8.142;2022-11-20T06:28:23;20.10;96.10
18101;DHT22;9177;49.156;8.142;2022-11-20T06:30:50;20.10;96.10
18101;DHT22;9177;49.156;8.142;2022-11-20T06:33:17;20.10;96.10
18101;DHT22;9177;49.156;8.142;2022-11-20T06:35:45;20.10;96.10
18101;DHT22;9177;49.156;8.142;2022-11-20T06:38:12;20.10;96.10
18101;DHT22;9177;49.156;8.142;2022-11-20T06:40:40;20.10;96.10
18101;DHT22;9177;49.156;8.142;2022-11-20T06:43:07;20.10;96.20
18101;DHT22;9177;49.156;8.142;2022-11-20T06:45:34;20.10;96.10
18101;DHT22;9177;49.156;8.142;2022-11-20T06:48:01;20.10;96.10
18101;DHT22;9177;49.156;8.142;2022-11-20T06:50:27;20.10;96.20
18101;DHT22;9177;49.156;8.142;2022-11-20T06:52:56;20.10;96.20
18101;DHT22;9177;49.156;8.142;2022-11-20T06:55:22;20.10;96.20
18101;DHT22;9177;49.156;8.142;2022-11-20T06:57:50;20.10;96.20
18101;DHT22;9177;49.156;8.142;2022-11-20T07:00:17;20.10;96.20
18101;DHT22;9177;49.156;8.142;2022-11-20T07:02:44;20.10;96.20
18101;DHT22;9177;49.156;8.142;2022-11-20T07:05:11;20.10;96.20
18101;DHT22;9177;49.156;8.142;2022-11-20T07:07:38;20.10;96.20
18101;DHT22;9177;49.156;8.142;2022-11-20T07:10:07;20.10;96.20
18101;DHT22;9177;49.156;8.142;2022-11-20T07:12:39;20.10;96.20
18101;DHT22;9177;49.156;8.142;2022-11-20T07:15:07;20.10;96.30
18101;DHT22;9177;49.156;8.142;2022-11-20T07:17:34;20.10;96.20
18101;DHT22;9177;49.156;8.142;2022-11-20T07:20:00;20.10;96.30
18101;DHT22;9177;49.156;8.142;2022-11-20T07:22:27;20.10;96.30
18101;DHT22;9177;49.156;8.142;2022-11-20T07:24:54;20.10;96.30
18101;DHT22;9177;49.156;8.142;2022-11-20T07:27:22;20.10;96.60
18101;DHT22;9177;49.156;8.142;2022-11-20T07:29:49;20.10;96.30
18101;DHT22;9177;49.156;8.142;2022-11-20T07:32:16;20.10;96.30
18101;DHT22;9177;49.156;8.142;2022-11-20T07:34:43;20.10;96.30
18101;DHT22;9177;49.156;8.142;2022-11-20T07:37:10;20.10;96.30
18101;DHT22;9177;49.156;8.142;2022-11-20T07:39:36;20.10;96.30
18101;DHT22;9177;49.156;8.142;2022-11-20T07:42:04;20.10;96.30
18101;DHT22;9177;49.156;8.142;2022-11-20T07:44:32;20.10;96.30
18101;DHT22;9177;49.156;8.142;2022-11-20T07:46:58;20.10;96.30
18101;DHT22;9177;49.156;8.142;2022-11-20T07:49:25;20.10;96.30
18101;DHT22;9177;49.156;8.142;2022-11-20T07:51:52;20.10;96.30
18101;DHT22;9177;49.156;8.142;2022-11-20T07:54:20;20.10;96.30
18101;DHT22;9177;49.156;8.142;2022-11-20T07:56:47;20.10;96.40
18101;DHT22;9177;49.156;8.142;2022-11-20T07:59:15;20.10;96.40
18101;DHT22;9177;49.156;8.142;2022-11-20T08:01:43;20.10;96.40
18101;DHT22;9177;49.156;8.142;2022-11-20T08:04:10;20.10;96.30
18101;DHT22;9177;49.156;8.142;2022-11-20T08:06:37;20.10;96.30
18101;DHT22;9177;49.156;8.142;2022-11-20T08:09:04;20.10;96.40
18101;DHT22;9177;49.156;8.142;2022-11-20T08:11:31;20.10;96.40
18101;DHT22;9177;49.156;8.142;2022-11-20T08:14:20;20.10;96.40
18101;DHT22;9177;49.156;8.142;2022-11-20T08:16:49;20.10;96.40
18101;DHT22;9177;49.156;8.142;2022-11-20T08:19:17;20.10;96.40
18101;DHT22;9177;49.156;8.142;2022-11-20T08:21:44;20.20;96.40
18101;DHT22;9177;49.156;8.142;2022-11-20T08:24:12;20.20;96.40
18101;DHT22;9177;49.156;8.142;2022-11-20T08:26:39;20.10;96.40
18101;DHT22;9177;49.156;8.142;2022-11-20T08:29:07;20.10;96.50
18101;DHT22;9177;49.156;8.142;2022-11-20T08:31:34;20.10;96.70
18101;DHT22;9177;49.156;8.142;2022-11-20T08:34:02;20.10;96.80
18101;DHT22;9177;49.156;8.142;2022-11-20T08:36:32;20.10;96.70
18101;DHT22;9177;49.156;8.142;2022-11-20T08:39:00;20.10;96.70
18101;DHT22;9177;49.156;8.142;2022-11-20T08:41:27;20.10;96.90
18101;DHT22;9177;49.156;8.142;2022-11-20T08:43:55;20.10;97.00
18101;DHT22;9177;49.156;8.142;2022-11-20T08:46:23;20.10;96.90
18101;DHT22;9177;49.156;8.142;2022-11-20T08:48:50;20.00;97.00
18101;DHT22;9177;49.156;8.142;2022-11-20T08:51:20;20.00;97.00
18101;DHT22;9177;49.156;8.142;2022-11-20T08:53:47;20.10;97.10
18101;DHT22;9177;49.156;8.142;2022-11-20T08:56:15;20.10;97.10
18101;DHT22;9177;49.156;8.142;2022-11-20T08:58:42;20.10;97.20
18101;DHT22;9177;49.156;8.142;2022-11-20T09:01:09;20.10;97.30
18101;DHT22;9177;49.156;8.142;2022-11-20T09:03:36;20.20;97.70
18101;DHT22;9177;49.156;8.142;2022-11-20T09:06:04;20.20;97.70
18101;DHT22;9177;49.156;8.142;2022-11-20T09:08:34;20.20;97.60
18101;DHT22;9177;49.156;8.142;2022-11-20T09:11:01;20.10;97.80
18101;DHT22;9177;49.156;8.142;2022-11-20T09:13:29;20.00;97.90
18101;DHT22;9177;49.156;8.142;2022-11-20T09:15:58;20.10;97.90
18101;DHT22;9177;49.156;8.142;2022-11-20T09:18:27;19.90;97.70
18101;DHT22;9177;49.156;8.142;2022-11-20T09:20:56;19.70;97.80
18101;DHT22;9177;49.156;8.142;2022-11-20T09:23:24;19.40;98.10
18101;DHT22;9177;49.156;8.142;2022-11-20T09:25:55;19.50;97.80
18101;DHT22;9177;49.156;8.142;2022-11-20T09:28:25;19.80;97.40
18101;DHT22;9177;49.156;8.142;2022-11-20T09:30:52;20.10;97.30
18101;DHT22;9177;49.156;8.142;2022-11-20T09:33:19;20.30;96.90
18101;DHT22;9177;49.156;8.142;2022-11-20T09:35:46;20.40;96.70
18101;DHT22;9177;49.156;8.142;2022-11-20T09:38:12;20.50;96.80
18101;DHT22;9177;49.156;8.142;2022-11-20T09:40:45;20.60;96.60
18101;DHT22;9177;49.156;8.142;2022-11-20T09:43:18;20.70;96.50
18101;DHT22;9177;49.156;8.142;2022-11-20T09:45:56;20.80;96.70
18101;DHT22;9177;49.156;8.142;2022-11-20T09:48:48;20.90;96.70
18101;DHT22;9177;49.156;8.142;2022-11-20T09:51:35;20.90;96.70
18101;DHT22;9177;49.156;8.142;2022-11-20T09:54:13;20.90;96.60
18101;DHT22;9177;49.156;8.142;2022-11-20T09:56:43;20.90;96.60
18101;DHT22;9177;49.156;8.142;2022-11-20T09:59:27;21.00;96.90
18101;DHT22;9177;49.156;8.142;2022-11-20T10:01:57;21.00;97.20
18101;DHT22;9177;49.156;8.142;2022-11-20T10:04:26;21.10;97.50
18101;DHT22;9177;49.156;8.142;2022-11-20T10:07:02;21.20;97.90
18101;DHT22;9177;49.156;8.142;2022-11-20T10:09:37;21.20;98.60
18101;DHT22;9177;49.156;8.142;2022-11-20T10:12:15;21.30;99.00
18101;DHT22;9177;49.156;8.142;2022-11-20T10:15:10;21.40;99.30
18101;DHT22;9177;49.156;8.142;2022-11-20T10:17:52;21.50;99.90
18101;DHT22;9177;49.156;8.142;2022-11-20T10:20:29;21.60;99.90
18101;DHT22;9177;49.156;8.142;2022-11-20T10:23:16;21.70;99.90
18101;DHT22;9177;49.156;8.142;2022-11-20T10:25:50;21.90;99.90
18101;DHT22;9177;49.156;8.142;2022-11-20T10:28:26;21.90;99.90
18101;DHT22;9177;49.156;8.142;2022-11-20T10:31:00;22.00;99.90
18101;DHT22;9177;49.156;8.142;2022-11-20T10:33:34;22.00;99.90
18101;DHT22;9177;49.156;8.142;2022-11-20T10:36:09;22.20;99.90
18101;DHT22;9177;49.156;8.142;2022-11-20T10:38:44;22.30;99.90
18101;DHT22;9177;49.156;8.142;2022-11-20T10:41:17;22.40;99.90
18101;DHT22;9177;49.156;8.142;2022-11-20T10:44:00;22.40;99.90
18101;DHT22;9177;49.156;8.142;2022-11-20T10:46:36;22.40;99.90
18101;DHT22;9177;49.156;8.142;2022-11-20T10:49:11;22.50;99.90
18101;DHT22;9177;49.156;8.142;2022-11-20T10:51:52;22.60;99.90
18101;DHT22;9177;49.156;8.142;2022-11-20T10:54:39;22.60;99.90
18101;DHT22;9177;49.156;8.142;2022-11-20T10:57:16;22.50;99.90
18101;DHT22;9177;49.156;8.142;2022-11-20T11:00:05;22.70;99.90
18101;DHT22;9177;49.156;8.142;2022-11-20T11:02:37;22.70;99.90
18101;DHT22;9177;49.156;8.142;2022-11-20T11:05:12;22.70;99.90
18101;DHT22;9177;49.156;8.142;2022-11-20T11:07:41;22.80;99.90
18101;DHT22;9177;49.156;8.142;2022-11-20T11:10:15;22.80;99.90
18101;DHT22;9177;49.156;8.142;2022-11-20T11:12:44;22.80;99.90
18101;DHT22;9177;49.156;8.142;2022-11-20T11:15:15;22.80;99.90
18101;DHT22;9177;49.156;8.142;2022-11-20T11:17:56;22.80;99.90
18101;DHT22;9177;49.156;8.142;2022-11-20T11:20:24;22.80;99.90
18101;DHT22;9177;49.156;8.142;2022-11-20T11:22:53;22.80;99.90
18101;DHT22;9177;49.156;8.142;2022-11-20T11:25:27;22.80;99.90
18101;DHT22;9177;49.156;8.142;2022-11-20T11:27:56;22.80;99.90
18101;DHT22;9177;49.156;8.142;2022-11-20T11:30:25;22.80;99.90
18101;DHT22;9177;49.156;8.142;2022-11-20T11:33:05;22.70;99.90
18101;DHT22;9177;49.156;8.142;2022-11-20T11:35:33;22.70;99.90
18101;DHT22;9177;49.156;8.142;2022-11-20T11:38:05;22.50;99.90
18101;DHT22;9177;49.156;8.142;2022-11-20T11:40:35;21.90;99.90
18101;DHT22;9177;49.156;8.142;2022-11-20T11:43:05;21.20;99.90
18101;DHT22;9177;49.156;8.142;2022-11-20T11:45:57;20.50;99.80
18101;DHT22;9177;49.156;8.142;2022-11-20T11:48:24;20.30;99.50
18101;DHT22;9177;49.156;8.142;2022-11-20T11:50:52;20.40;98.90
18101;DHT22;9177;49.156;8.142;2022-11-20T11:53:21;20.90;99.10
18101;DHT22;9177;49.156;8.142;2022-11-20T11:55:54;21.50;99.50
18101;DHT22;9177;49.156;8.142;2022-11-20T11:58:39;21.90;99.50
18101;DHT22;9177;49.156;8.142;2022-11-20T12:01:20;22.40;99.60
18101;DHT22;9177;49.156;8.142;2022-11-20T12:03:59;22.70;99.70
18101;DHT22;9177;49.156;8.142;2022-11-20T12:06:28;22.90;99.80
18101;DHT22;9177;49.156;8.142;2022-11-20T12:09:01;23.00;99.90
18101;DHT22;9177;49.156;8.142;2022-11-20T12:11:33;23.00;99.90
18101;DHT22;9177;49.156;8.142;2022-11-20T12:14:07;23.20;99.90
18101;DHT22;9177;49.156;8.142;2022-11-20T12:16:37;23.30;99.90
18101;DHT22;9177;49.156;8.142;2022-11-20T12:19:13;23.40;99.90
18101;DHT22;9177;49.156;8.142;2022-11-20T12:21:49;23.50;99.90
18101;DHT22;9177;49.156;8.142;2022-11-20T12:24:50;23.50;99.90
18101;DHT22;9177;49.156;8.142;2022-11-20T12:27:43;23.40;99.90
18101;DHT22;9177;49.156;8.142;2022-11-20T12:30:13;23.40;99.90
18101;DHT22;9177;49.156;8.142;2022-11-20T12:33:12;23.30;99.90
18101;DHT22;9177;49.156;8.142;2022-11-20T12:35:54;23.20;99.90
18101;DHT22;9177;49.156;8.142;2022-11-20T12:38:51;23.30;99.90
18101;DHT22;9177;49.156;8.142;2022-11-20T12:41:33;23.30;99.90
18101;DHT22;9177;49.156;8.142;2022-11-20T12:44:34;23.20;99.90
18101;DHT22;9177;49.156;8.142;2022-11-20T12:47:28;23.20;99.90
18101;DHT22;9177;49.156;8.142;2022-11-20T12:50:04;23.20;99.90
18101;DHT22;9177;49.156;8.142;2022-11-20T12:52:44;23.10;99.90
18101;DHT22;9177;49.156;8.142;2022-11-20T12:55:31;23.00;99.90
18101;DHT22;9177;49.156;8.142;2022-11-20T12:58:06;23.00;99.90
18101;DHT22;9177;49.156;8.142;2022-11-20T13:00:39;22.90;99.90
18101;DHT22;9177;49.156;8.142;2022-11-20T13:06:04;22.90;99.90
18101;DHT22;9177;49.156;8.142;2022-11-20T13:08:35;22.80;99.90
18101;DHT22;9177;49.156;8.142;2022-11-20T13:11:10;22.90;99.90
18101;DHT22;9177;49.156;8.142;2022-11-20T13:13:47;23.00;99.90
18101;DHT22;9177;49.156;8.142;2022-11-20T13:16:22;23.10;99.90
18101;DHT22;9177;49.156;8.142;2022-11-20T13:18:51;23.10;99.90
18101;DHT22;9177;49.156;8.142;2022-11-20T13:21:34;22.90;99.90
18101;DHT22;9177;49.156;8.142;2022-11-20T13:24:06;22.90;99.90
18101;DHT22;9177;49.156;8.142;2022-11-20T13:26:33;22.90;99.90
18101;DHT22;9177;49.156;8.142;2022-11-20T13:29:04;22.90;99.90
18101;DHT22;9177;49.156;8.142;2022-11-20T13:31:35;22.80;99.90
18101;DHT22;9177;49.156;8.142;2022-11-20T13:34:05;22.80;99.90
18101;DHT22;9177;49.156;8.142;2022-11-20T13:36:33;22.80;99.90
18101;DHT22;9177;49.156;8.142;2022-11-20T13:39:02;22.70;99.90
18101;DHT22;9177;49.156;8.142;2022-11-20T13:41:32;22.70;99.90
18101;DHT22;9177;49.156;8.142;2022-11-20T13:44:06;22.80;99.90
18101;DHT22;9177;49.156;8.142;2022-11-20T13:46:41;22.70;99.90
18101;DHT22;9177;49.156;8.142;2022-11-20T13:49:14;22.70;99.90
18101;DHT22;9177;49.156;8.142;2022-11-20T13:51:44;22.70;99.90
18101;DHT22;9177;49.156;8.142;2022-11-20T13:54:47;22.70;99.90
18101;DHT22;9177;49.156;8.142;2022-11-20T14:00:21;22.70;99.90
18101;DHT22;9177;49.156;8.142;2022-11-20T14:02:59;22.80;99.90
18101;DHT22;9177;49.156;8.142;2022-11-20T14:05:29;22.80;99.90
18101;DHT22;9177;49.156;8.142;2022-11-20T14:07:58;22.70;99.90
18101;DHT22;9177;49.156;8.142;2022-11-20T14:10:27;22.70;99.90
18101;DHT22;9177;49.156;8.142;2022-11-20T14:12:56;22.70;99.90
18101;DHT22;9177;49.156;8.142;2022-11-20T14:15:28;22.70;99.90
18101;DHT22;9177;49.156;8.142;2022-11-20T14:17:56;22.60;99.90
18101;DHT22;9177;49.156;8.142;2022-11-20T14:22:52;22.70;99.90
18101;DHT22;9177;49.156;8.142;2022-11-20T14:25:21;22.70;99.90
18101;DHT22;9177;49.156;8.142;2022-11-20T14:27:58;22.20;99.90
18101;DHT22;9177;49.156;8.142;2022-11-20T14:30:27;21.50;99.90
18101;DHT22;9177;49.156;8.142;2022-11-20T14:33:02;21.00;99.90
18101;DHT22;9177;49.156;8.142;2022-11-20T14:35:33;20.60;99.90
18101;DHT22;9177;49.156;8.142;2022-11-20T14:38:01;20.20;99.90
18101;DHT22;9177;49.156;8.142;2022-11-20T14:40:31;19.80;98.90
18101;DHT22;9177;49.156;8.142;2022-11-20T14:43:17;19.40;99.20
18101;DHT22;9177;49.156;8.142;2022-11-20T14:45:46;19.20;99.30
18101;DHT22;9177;49.156;8.142;2022-11-20T14:48:16;19.20;99.10
18101;DHT22;9177;49.156;8.142;2022-11-20T14:50:43;19.40;98.60
18101;DHT22;9177;49.156;8.142;2022-11-20T14:53:11;19.20;98.20
18101;DHT22;9177;49.156;8.142;2022-11-20T14:55:55;19.10;97.70
18101;DHT22;9177;49.156;8.142;2022-11-20T14:58:25;19.00;96.80
18101;DHT22;9177;49.156;8.142;2022-11-20T15:00:59;18.90;96.90
18101;DHT22;9177;49.156;8.142;2022-11-20T15:03:31;19.20;97.70
18101;DHT22;9177;49.156;8.142;2022-11-20T15:06:02;19.40;98.00
18101;DHT22;9177;49.156;8.142;2022-11-20T15:08:29;19.60;96.80
18101;DHT22;9177;49.156;8.142;2022-11-20T15:10:57;19.70;96.80
18101;DHT22;9177;49.156;8.142;2022-11-20T15:13:29;19.70;97.70
18101;DHT22;9177;49.156;8.142;2022-11-20T15:15:57;19.80;97.40
18101;DHT22;9177;49.156;8.142;2022-11-20T15:18:29;19.80;97.40
18101;DHT22;9177;49.156;8.142;2022-11-20T15:21:00;19.80;97.50
18101;DHT22;9177;49.156;8.142;2022-11-20T15:23:28;19.80;97.20
18101;DHT22;9177;49.156;8.142;2022-11-20T15:25:56;19.90;97.20
18101;DHT22;9177;49.156;8.142;2022-11-20T15:28:29;19.90;97.10
18101;DHT22;9177;49.156;8.142;2022-11-20T15:30:57;19.90;97.10
18101;DHT22;9177;49.156;8.142;2022-11-20T15:33:24;19.90;97.00
18101;DHT22;9177;49.156;8.142;2022-11-20T15:35:51;19.90;96.90
18101;DHT22;9177;49.156;8.142;2022-11-20T15:38:18;19.90;97.10
18101;DHT22;9177;49.156;8.142;2022-11-20T15:40:45;19.90;97.10
18101;DHT22;9177;49.156;8.142;2022-11-20T15:43:12;19.90;97.20
18101;DHT22;9177;49.156;8.142;2022-11-20T15:45:43;19.90;97.10
18101;DHT22;9177;49.156;8.142;2022-11-20T15:48:14;19.80;97.10
18101;DHT22;9177;49.156;8.142;2022-11-20T15:50:46;19.90;97.20
18101;DHT22;9177;49.156;8.142;2022-11-20T15:53:16;19.90;97.30
18101;DHT22;9177;49.156;8.142;2022-11-20T15:55:43;19.80;97.30
18101;DHT22;9177;49.156;8.142;2022-11-20T15:58:10;19.80;97.40
18101;DHT22;9177;49.156;8.142;2022-11-20T16:00:37;19.80;97.40
18101;DHT22;9177;49.156;8.142;2022-11-20T16:03:08;19.80;97.40
18101;DHT22;9177;49.156;8.142;2022-11-20T16:05:35;19.80;97.40
18101;DHT22;9177;49.156;8.142;2022-11-20T16:08:03;19.80;97.40
18101;DHT22;9177;49.156;8.142;2022-11-20T16:10:30;19.80;97.80
18101;DHT22;9177;49.156;8.142;2022-11-20T16:12:56;19.80;97.40
18101;DHT22;9177;49.156;8.142;2022-11-20T16:15:44;19.80;97.60